sensor_id;sensor_type;location;lat;lon;timestamp;temperature;humidity
13123;DHT22;6627;50.920;12.050;2023-02-01T00:01:05;5.80;1.00
13123;DHT22;6627;50.920;12.050;2023-02-01T00:03:33;5.80;1.00
13123;DHT22;6627;50.920;12.050;2023-02-01T00:06:00;5.90;99.90
13123;DHT22;6627;50.920;12.050;2023-02-01T00:08:27;5.90;99.90
13123;DHT22;6627;50.920;12.050;2023-02-01T00:10:59;5.80;99.90
13123;DHT22;6627;50.920;12.050;2023-02-01T00:13:31;5.80;99.90
13123;DHT22;6627;50.920;12.050;2023-02-01T00:16:06;5.80;99.90
13123;DHT22;6627;50.920;12.050;2023-02-01T00:18:35;5.70;99.90
13123;DHT22;6627;50.920;12.050;2023-02-01T00:21:03;5.80;92.30
13123;DHT22;6627;50.920;12.050;2023-02-01T00:23:32;5.70;81.20
13123;DHT22;6627;50.920;12.050;2023-02-01T00:26:02;5.70;16.70
13123;DHT22;6627;50.920;12.050;2023-02-01T00:28:32;5.70;1.00
13123;DHT22;6627;50.920;12.050;2023-02-01T00:31:01;5.70;1.00
13123;DHT22;6627;50.920;12.050;2023-02-01T00:33:32;5.60;1.00
13123;DHT22;6627;50.920;12.050;2023-02-01T00:36:02;5.60;1.00
13123;DHT22;6627;50.920;12.050;2023-02-01T00:38:31;5.50;1.00
13123;DHT22;6627;50.920;12.050;2023-02-01T00:41:02;5.60;1.00
13123;DHT22;6627;50.920;12.050;2023-02-01T00:43:30;5.60;1.00
13123;DHT22;6627;50.920;12.050;2023-02-01T00:45:58;5.60;1.00
13123;DHT22;6627;50.920;12.050;2023-02-01T00:50:58;5.60;1.00
13123;DHT22;6627;50.920;12.050;2023-02-01T00:53:26;5.50;1.00
13123;DHT22;6627;50.920;12.050;2023-02-01T00:55:54;5.50;1.00
13123;DHT22;6627;50.920;12.050;2023-02-01T00:58:22;5.50;1.00
13123;DHT22;6627;50.920;12.050;2023-02-01T01:01:00;5.60;1.00
13123;DHT22;6627;50.920;12.050;2023-02-01T01:03:29;5.50;1.00
13123;DHT22;6627;50.920;12.050;2023-02-01T01:06:02;5.50;1.00
13123;DHT22;6627;50.920;12.050;2023-02-01T01:08:30;5.50;1.00
13123;DHT22;6627;50.920;12.050;2023-02-01T01:10:58;5.50;1.00
13123;DHT22;6627;50.920;12.050;2023-02-01T01:13:25;5.50;1.00
13123;DHT22;6627;50.920;12.050;2023-02-01T01:15:52;5.50;1.00
13123;DHT22;6627;50.920;12.050;2023-02-01T01:18:20;5.50;99.90
13123;DHT22;6627;50.920;12.050;2023-02-01T01:20:47;5.50;99.90
13123;DHT22;6627;50.920;12.050;2023-02-01T01:23:16;5.50;99.90
13123;DHT22;6627;50.920;12.050;2023-02-01T01:25:43;5.50;1.00
13123;DHT22;6627;50.920;12.050;2023-02-01T01:28:11;5.50;1.00
13123;DHT22;6627;50.920;12.050;2023-02-01T01:30:38;5.40;1.00
13123;DHT22;6627;50.920;12.050;2023-02-01T01:33:05;5.40;1.00
13123;DHT22;6627;50.920;12.050;2023-02-01T01:35:33;5.40;1.00
13123;DHT22;6627;50.920;12.050;2023-02-01T01:38:01;5.30;1.00
13123;DHT22;6627;50.920;12.050;2023-02-01T01:40:31;5.30;1.00
13123;DHT22;6627;50.920;12.050;2023-02-01T01:42:58;5.30;1.00
13123;DHT22;6627;50.920;12.050;2023-02-01T01:45:27;5.40;1.00
13123;DHT22;6627;50.920;12.050;2023-02-01T01:47:58;5.40;1.00
13123;DHT22;6627;50.920;12.050;2023-02-01T01:50:30;5.30;1.00
13123;DHT22;6627;50.920;12.050;2023-02-01T01:53:02;5.30;1.00
13123;DHT22;6627;50.920;12.050;2023-02-01T01:55:37;5.30;1.00
13123;DHT22;6627;50.920;12.050;2023-02-01T01:58:13;5.30;1.00
13123;DHT22;6627;50.920;12.050;2023-02-01T02:00:43;5.30;1.00
13123;DHT22;6627;50.920;12.050;2023-02-01T02:03:14;5.30;1.00
13123;DHT22;6627;50.920;12.050;2023-02-01T02:05:48;5.30;1.00
13123;DHT22;6627;50.920;12.050;2023-02-01T02:08:18;5.30;1.00
13123;DHT22;6627;50.920;12.050;2023-02-01T02:10:48;5.30;1.00
13123;DHT22;6627;50.920;12.050;2023-02-01T02:13:32;5.30;1.00
13123;DHT22;6627;50.920;12.050;2023-02-01T02:16:09;5.30;1.00
13123;DHT22;6627;50.920;12.050;2023-02-01T02:18:58;5.30;1.00
13123;DHT22;6627;50.920;12.050;2023-02-01T02:21:56;5.30;1.00
13123;DHT22;6627;50.920;12.050;2023-02-01T02:25:02;5.30;1.00
13123;DHT22;6627;50.920;12.050;2023-02-01T02:28:00;5.30;1.00
13123;DHT22;6627;50.920;12.050;2023-02-01T02:31:00;5.30;99.90
13123;DHT22;6627;50.920;12.050;2023-02-01T02:33:53;5.30;1.00
13123;DHT22;6627;50.920;12.050;2023-02-01T02:36:37;5.30;99.90
13123;DHT22;6627;50.920;12.050;2023-02-01T02:39:19;5.30;1.00
13123;DHT22;6627;50.920;12.050;2023-02-01T02:41:57;5.30;99.90
13123;DHT22;6627;50.920;12.050;2023-02-01T02:44:50;5.40;99.90
13123;DHT22;6627;50.920;12.050;2023-02-01T02:47:52;5.40;99.90
13123;DHT22;6627;50.920;12.050;2023-02-01T02:50:27;5.30;99.90
13123;DHT22;6627;50.920;12.050;2023-02-01T02:53:18;5.30;99.90
13123;DHT22;6627;50.920;12.050;2023-02-01T02:56:10;5.20;99.90
13123;DHT22;6627;50.920;12.050;2023-02-01T02:58:58;5.30;99.90
13123;DHT22;6627;50.920;12.050;2023-02-01T03:01:44;5.30;99.90
13123;DHT22;6627;50.920;12.050;2023-02-01T03:04:29;5.20;99.90
13123;DHT22;6627;50.920;12.050;2023-02-01T03:07:12;5.20;99.90
13123;DHT22;6627;50.920;12.050;2023-02-01T03:12:15;5.30;99.90
13123;DHT22;6627;50.920;12.050;2023-02-01T03:15:09;5.20;99.90
13123;DHT22;6627;50.920;12.050;2023-02-01T03:17:41;5.20;99.90
13123;DHT22;6627;50.920;12.050;2023-02-01T03:20:13;5.20;99.90
13123;DHT22;6627;50.920;12.050;2023-02-01T03:22:45;5.20;99.90
13123;DHT22;6627;50.920;12.050;2023-02-01T03:25:20;5.20;98.90
13123;DHT22;6627;50.920;12.050;2023-02-01T03:27:53;5.30;42.10
13123;DHT22;6627;50.920;12.050;2023-02-01T03:30:27;5.30;13.40
13123;DHT22;6627;50.920;12.050;2023-02-01T03:32:58;5.30;1.00
13123;DHT22;6627;50.920;12.050;2023-02-01T03:35:32;5.30;1.00
13123;DHT22;6627;50.920;12.050;2023-02-01T03:38:14;5.40;1.00
13123;DHT22;6627;50.920;12.050;2023-02-01T03:40:54;5.50;1.00
13123;DHT22;6627;50.920;12.050;2023-02-01T03:43:27;5.60;1.00
13123;DHT22;6627;50.920;12.050;2023-02-01T03:46:02;5.50;1.00
13123;DHT22;6627;50.920;12.050;2023-02-01T03:48:39;5.50;1.00
13123;DHT22;6627;50.920;12.050;2023-02-01T03:51:08;5.40;1.00
13123;DHT22;6627;50.920;12.050;2023-02-01T03:53:40;5.50;1.00
13123;DHT22;6627;50.920;12.050;2023-02-01T03:56:12;5.50;1.00
13123;DHT22;6627;50.920;12.050;2023-02-01T03:58:42;5.40;1.00
13123;DHT22;6627;50.920;12.050;2023-02-01T04:01:25;5.40;1.00
13123;DHT22;6627;50.920;12.050;2023-02-01T04:03:54;5.30;1.00
13123;DHT22;6627;50.920;12.050;2023-02-01T04:06:22;5.30;1.00
13123;DHT22;6627;50.920;12.050;2023-02-01T04:08:51;5.20;1.00
13123;DHT22;6627;50.920;12.050;2023-02-01T04:11:19;5.20;1.00
13123;DHT22;6627;50.920;12.050;2023-02-01T04:13:46;5.20;1.00
13123;DHT22;6627;50.920;12.050;2023-02-01T04:16:14;5.20;1.00
13123;DHT22;6627;50.920;12.050;2023-02-01T04:18:41;5.20;1.00
13123;DHT22;6627;50.920;12.050;2023-02-01T04:21:08;5.20;1.00
13123;DHT22;6627;50.920;12.050;2023-02-01T04:23:36;5.20;1.00
13123;DHT22;6627;50.920;12.050;2023-02-01T04:26:05;5.20;1.00
13123;DHT22;6627;50.920;12.050;2023-02-01T04:28:34;5.20;1.00
13123;DHT22;6627;50.920;12.050;2023-02-01T04:31:01;5.20;1.00
13123;DHT22;6627;50.920;12.050;2023-02-01T04:33:29;5.20;1.00
13123;DHT22;6627;50.920;12.050;2023-02-01T04:35:58;5.20;1.00
13123;DHT22;6627;50.920;12.050;2023-02-01T04:38:26;5.20;14.70
13123;DHT22;6627;50.920;12.050;2023-02-01T04:40:55;5.20;12.50
13123;DHT22;6627;50.920;12.050;2023-02-01T04:43:24;5.20;21.60
13123;DHT22;6627;50.920;12.050;2023-02-01T04:45:52;5.20;52.20
13123;DHT22;6627;50.920;12.050;2023-02-01T04:48:21;5.20;82.00
13123;DHT22;6627;50.920;12.050;2023-02-01T04:50:48;5.20;98.00
13123;DHT22;6627;50.920;12.050;2023-02-01T04:53:16;5.20;99.90
13123;DHT22;6627;50.920;12.050;2023-02-01T04:55:45;5.20;99.90
13123;DHT22;6627;50.920;12.050;2023-02-01T04:58:15;5.20;99.90
13123;DHT22;6627;50.920;12.050;2023-02-01T05:00:45;5.20;99.90
13123;DHT22;6627;50.920;12.050;2023-02-01T05:03:13;5.20;1.00
13123;DHT22;6627;50.920;12.050;2023-02-01T05:05:41;5.10;1.00
13123;DHT22;6627;50.920;12.050;2023-02-01T05:08:08;5.10;42.30
13123;DHT22;6627;50.920;12.050;2023-02-01T05:10:36;5.20;1.00
13123;DHT22;6627;50.920;12.050;2023-02-01T05:13:05;5.10;30.20
13123;DHT22;6627;50.920;12.050;2023-02-01T05:15:51;5.10;1.00
13123;DHT22;6627;50.920;12.050;2023-02-01T05:18:21;4.70;99.90
13123;DHT22;6627;50.920;12.050;2023-02-01T05:20:49;4.90;99.90
13123;DHT22;6627;50.920;12.050;2023-02-01T05:23:17;4.90;99.90
13123;DHT22;6627;50.920;12.050;2023-02-01T05:25:45;3.80;99.90
13123;DHT22;6627;50.920;12.050;2023-02-01T05:28:14;5.50;99.90
13123;DHT22;6627;50.920;12.050;2023-02-01T05:30:42;4.90;99.90
13123;DHT22;6627;50.920;12.050;2023-02-01T05:33:11;4.90;99.90
13123;DHT22;6627;50.920;12.050;2023-02-01T05:35:38;4.90;99.90
13123;DHT22;6627;50.920;12.050;2023-02-01T05:38:06;4.90;99.90
13123;DHT22;6627;50.920;12.050;2023-02-01T05:40:34;4.90;99.90
13123;DHT22;6627;50.920;12.050;2023-02-01T05:43:03;4.80;99.90
13123;DHT22;6627;50.920;12.050;2023-02-01T05:45:31;4.70;1.00
13123;DHT22;6627;50.920;12.050;2023-02-01T05:47:59;4.80;99.90
13123;DHT22;6627;50.920;12.050;2023-02-01T05:50:28;4.80;99.90
13123;DHT22;6627;50.920;12.050;2023-02-01T05:52:57;4.80;99.90
13123;DHT22;6627;50.920;12.050;2023-02-01T05:55:25;4.80;99.90
13123;DHT22;6627;50.920;12.050;2023-02-01T05:57:53;4.70;1.00
13123;DHT22;6627;50.920;12.050;2023-02-01T06:00:22;4.60;1.00
13123;DHT22;6627;50.920;12.050;2023-02-01T06:02:50;4.60;1.00
13123;DHT22;6627;50.920;12.050;2023-02-01T06:05:20;4.60;1.00
13123;DHT22;6627;50.920;12.050;2023-02-01T06:10:20;4.60;1.00
13123;DHT22;6627;50.920;12.050;2023-02-01T06:12:48;4.60;1.00
13123;DHT22;6627;50.920;12.050;2023-02-01T06:15:16;4.70;1.00
13123;DHT22;6627;50.920;12.050;2023-02-01T06:17:45;4.70;1.00
13123;DHT22;6627;50.920;12.050;2023-02-01T06:20:15;4.60;1.00
13123;DHT22;6627;50.920;12.050;2023-02-01T06:22:43;4.60;1.00
13123;DHT22;6627;50.920;12.050;2023-02-01T06:25:13;4.70;1.00
13123;DHT22;6627;50.920;12.050;2023-02-01T06:27:46;4.70;1.00
13123;DHT22;6627;50.920;12.050;2023-02-01T06:30:16;4.70;99.90
13123;DHT22;6627;50.920;12.050;2023-02-01T06:32:50;4.80;99.90
13123;DHT22;6627;50.920;12.050;2023-02-01T06:35:22;4.80;99.90
13123;DHT22;6627;50.920;12.050;2023-02-01T06:37:49;4.80;99.90
13123;DHT22;6627;50.920;12.050;2023-02-01T06:40:19;4.80;99.90
13123;DHT22;6627;50.920;12.050;2023-02-01T06:42:48;5.00;1.00
13123;DHT22;6627;50.920;12.050;2023-02-01T06:45:19;5.10;1.00
13123;DHT22;6627;50.920;12.050;2023-02-01T06:47:48;5.10;1.00
13123;DHT22;6627;50.920;12.050;2023-02-01T06:50:16;5.00;1.00
13123;DHT22;6627;50.920;12.050;2023-02-01T06:52:48;6.20;1.00
13123;DHT22;6627;50.920;12.050;2023-02-01T06:55:15;5.10;1.00
13123;DHT22;6627;50.920;12.050;2023-02-01T06:57:45;5.20;1.00
13123;DHT22;6627;50.920;12.050;2023-02-01T07:00:13;5.20;1.00
13123;DHT22;6627;50.920;12.050;2023-02-01T07:02:41;5.30;99.90
13123;DHT22;6627;50.920;12.050;2023-02-01T07:05:10;5.30;99.90
13123;DHT22;6627;50.920;12.050;2023-02-01T07:07:37;5.30;99.90
13123;DHT22;6627;50.920;12.050;2023-02-01T07:10:05;5.30;99.90
13123;DHT22;6627;50.920;12.050;2023-02-01T07:12:34;5.40;99.90
13123;DHT22;6627;50.920;12.050;2023-02-01T07:15:14;5.50;99.90
13123;DHT22;6627;50.920;12.050;2023-02-01T07:17:42;5.40;99.90
13123;DHT22;6627;50.920;12.050;2023-02-01T07:20:11;5.50;78.60
13123;DHT22;6627;50.920;12.050;2023-02-01T07:22:46;5.50;65.00
13123;DHT22;6627;50.920;12.050;2023-02-01T07:25:16;5.40;35.90
13123;DHT22;6627;50.920;12.050;2023-02-01T07:27:43;5.50;1.00
13123;DHT22;6627;50.920;12.050;2023-02-01T07:30:16;5.60;1.00
13123;DHT22;6627;50.920;12.050;2023-02-01T07:32:46;5.50;1.00
13123;DHT22;6627;50.920;12.050;2023-02-01T07:35:32;5.60;1.00
13123;DHT22;6627;50.920;12.050;2023-02-01T07:38:01;5.60;1.00
13123;DHT22;6627;50.920;12.050;2023-02-01T07:40:28;5.50;1.00
13123;DHT22;6627;50.920;12.050;2023-02-01T07:42:56;5.50;1.00
13123;DHT22;6627;50.920;12.050;2023-02-01T07:45:25;5.50;1.00
13123;DHT22;6627;50.920;12.050;2023-02-01T07:47:52;5.60;1.00
13123;DHT22;6627;50.920;12.050;2023-02-01T07:50:20;5.60;1.00
13123;DHT22;6627;50.920;12.050;2023-02-01T07:52:47;5.60;1.00
13123;DHT22;6627;50.920;12.050;2023-02-01T07:55:15;5.60;1.00
13123;DHT22;6627;50.920;12.050;2023-02-01T07:57:42;5.60;1.00
13123;DHT22;6627;50.920;12.050;2023-02-01T08:00:10;5.70;1.00
13123;DHT22;6627;50.920;12.050;2023-02-01T08:02:58;5.60;1.00
13123;DHT22;6627;50.920;12.050;2023-02-01T08:05:26;5.60;1.00
13123;DHT22;6627;50.920;12.050;2023-02-01T08:07:54;5.60;1.00
13123;DHT22;6627;50.920;12.050;2023-02-01T08:10:21;5.50;1.00
13123;DHT22;6627;50.920;12.050;2023-02-01T08:12:48;5.40;50.70
13123;DHT22;6627;50.920;12.050;2023-02-01T08:15:18;5.40;99.90
13123;DHT22;6627;50.920;12.050;2023-02-01T08:17:46;5.40;99.90
13123;DHT22;6627;50.920;12.050;2023-02-01T08:20:16;5.40;99.90
13123;DHT22;6627;50.920;12.050;2023-02-01T08:22:44;5.20;1.00
13123;DHT22;6627;50.920;12.050;2023-02-01T08:25:11;5.20;99.90
13123;DHT22;6627;50.920;12.050;2023-02-01T08:27:41;5.20;99.90
13123;DHT22;6627;50.920;12.050;2023-02-01T08:30:09;5.20;99.90
13123;DHT22;6627;50.920;12.050;2023-02-01T08:32:37;5.30;99.90
13123;DHT22;6627;50.920;12.050;2023-02-01T08:35:05;5.30;5.60
13123;DHT22;6627;50.920;12.050;2023-02-01T08:37:35;5.40;1.00
13123;DHT22;6627;50.920;12.050;2023-02-01T08:40:03;5.40;1.00
13123;DHT22;6627;50.920;12.050;2023-02-01T08:42:33;5.50;1.00
13123;DHT22;6627;50.920;12.050;2023-02-01T08:45:18;5.50;1.00
13123;DHT22;6627;50.920;12.050;2023-02-01T08:47:46;5.60;99.90
13123;DHT22;6627;50.920;12.050;2023-02-01T08:50:15;5.60;99.90
13123;DHT22;6627;50.920;12.050;2023-02-01T08:52:45;5.70;99.90
13123;DHT22;6627;50.920;12.050;2023-02-01T08:55:14;5.70;99.90
13123;DHT22;6627;50.920;12.050;2023-02-01T08:57:42;5.80;99.90
13123;DHT22;6627;50.920;12.050;2023-02-01T09:00:12;5.80;99.90
13123;DHT22;6627;50.920;12.050;2023-02-01T09:02:42;5.80;99.90
13123;DHT22;6627;50.920;12.050;2023-02-01T09:05:10;5.90;99.90
13123;DHT22;6627;50.920;12.050;2023-02-01T09:07:40;5.90;99.90
13123;DHT22;6627;50.920;12.050;2023-02-01T09:10:11;6.00;99.90
13123;DHT22;6627;50.920;12.050;2023-02-01T09:12:38;6.00;99.90
13123;DHT22;6627;50.920;12.050;2023-02-01T09:15:06;6.00;99.90
13123;DHT22;6627;50.920;12.050;2023-02-01T09:17:35;6.00;99.90
13123;DHT22;6627;50.920;12.050;2023-02-01T09:20:03;6.10;99.90
13123;DHT22;6627;50.920;12.050;2023-02-01T09:22:31;6.10;99.90
13123;DHT22;6627;50.920;12.050;2023-02-01T09:24:58;6.00;99.90
13123;DHT22;6627;50.920;12.050;2023-02-01T09:27:27;6.10;99.90
13123;DHT22;6627;50.920;12.050;2023-02-01T09:29:54;6.10;99.90
13123;DHT22;6627;50.920;12.050;2023-02-01T09:32:22;6.10;99.90
13123;DHT22;6627;50.920;12.050;2023-02-01T09:34:52;6.00;1.00
13123;DHT22;6627;50.920;12.050;2023-02-01T09:39:48;6.00;1.00
13123;DHT22;6627;50.920;12.050;2023-02-01T09:42:21;6.10;99.90
13123;DHT22;6627;50.920;12.050;2023-02-01T09:45:14;6.10;99.90
13123;DHT22;6627;50.920;12.050;2023-02-01T09:47:51;6.10;99.90
13123;DHT22;6627;50.920;12.050;2023-02-01T09:50:28;6.10;99.90
13123;DHT22;6627;50.920;12.050;2023-02-01T09:53:04;6.20;99.90
13123;DHT22;6627;50.920;12.050;2023-02-01T09:55:40;6.30;57.80
13123;DHT22;6627;50.920;12.050;2023-02-01T09:58:15;6.40;35.90
13123;DHT22;6627;50.920;12.050;2023-02-01T10:03:20;6.50;1.00
13123;DHT22;6627;50.920;12.050;2023-02-01T10:06:06;6.60;1.00
13123;DHT22;6627;50.920;12.050;2023-02-01T10:09:08;6.60;1.00
13123;DHT22;6627;50.920;12.050;2023-02-01T10:11:54;6.60;1.00
13123;DHT22;6627;50.920;12.050;2023-02-01T10:14:59;6.60;1.00
13123;DHT22;6627;50.920;12.050;2023-02-01T10:17:46;6.60;1.00
13123;DHT22;6627;50.920;12.050;2023-02-01T10:20:29;6.60;1.00
13123;DHT22;6627;50.920;12.050;2023-02-01T10:23:15;6.60;1.00
13123;DHT22;6627;50.920;12.050;2023-02-01T10:25:58;6.40;1.00
13123;DHT22;6627;50.920;12.050;2023-02-01T10:28:34;6.40;1.00
13123;DHT22;6627;50.920;12.050;2023-02-01T10:31:08;6.40;1.00
13123;DHT22;6627;50.920;12.050;2023-02-01T10:33:41;6.40;1.00
13123;DHT22;6627;50.920;12.050;2023-02-01T10:36:15;6.40;1.00
13123;DHT22;6627;50.920;12.050;2023-02-01T10:38:47;6.40;1.00
13123;DHT22;6627;50.920;12.050;2023-02-01T10:41:17;6.30;1.00
13123;DHT22;6627;50.920;12.050;2023-02-01T10:43:49;6.30;1.00
13123;DHT22;6627;50.920;12.050;2023-02-01T10:46:22;6.30;1.00
13123;DHT22;6627;50.920;12.050;2023-02-01T10:48:53;6.40;1.00
13123;DHT22;6627;50.920;12.050;2023-02-01T10:51:26;6.50;1.00
13123;DHT22;6627;50.920;12.050;2023-02-01T10:54:01;6.60;1.00
13123;DHT22;6627;50.920;12.050;2023-02-01T10:56:32;6.70;1.00
13123;DHT22;6627;50.920;12.050;2023-02-01T10:59:11;6.80;1.00
13123;DHT22;6627;50.920;12.050;2023-02-01T11:01:46;6.80;1.00
13123;DHT22;6627;50.920;12.050;2023-02-01T11:04:16;6.80;99.90
13123;DHT22;6627;50.920;12.050;2023-02-01T11:06:48;6.90;1.00
13123;DHT22;6627;50.920;12.050;2023-02-01T11:09:20;7.00;99.90
13123;DHT22;6627;50.920;12.050;2023-02-01T11:11:56;7.00;99.90
13123;DHT22;6627;50.920;12.050;2023-02-01T11:14:30;7.00;99.90
13123;DHT22;6627;50.920;12.050;2023-02-01T11:17:17;7.00;99.90
13123;DHT22;6627;50.920;12.050;2023-02-01T11:19:57;7.10;99.90
13123;DHT22;6627;50.920;12.050;2023-02-01T11:22:27;7.30;99.90
13123;DHT22;6627;50.920;12.050;2023-02-01T11:24:55;7.20;99.90
13123;DHT22;6627;50.920;12.050;2023-02-01T11:27:25;7.40;99.90
13123;DHT22;6627;50.920;12.050;2023-02-01T11:29:55;7.50;99.90
13123;DHT22;6627;50.920;12.050;2023-02-01T11:32:28;7.60;99.90
13123;DHT22;6627;50.920;12.050;2023-02-01T11:35:00;7.60;56.50
13123;DHT22;6627;50.920;12.050;2023-02-01T11:37:33;7.60;1.00
13123;DHT22;6627;50.920;12.050;2023-02-01T11:40:22;7.40;1.00
13123;DHT22;6627;50.920;12.050;2023-02-01T11:42:54;7.30;1.00
13123;DHT22;6627;50.920;12.050;2023-02-01T11:45:26;7.30;1.00
13123;DHT22;6627;50.920;12.050;2023-02-01T11:47:56;8.20;1.00
13123;DHT22;6627;50.920;12.050;2023-02-01T11:50:35;7.30;1.00
13123;DHT22;6627;50.920;12.050;2023-02-01T11:53:25;7.30;1.00
13123;DHT22;6627;50.920;12.050;2023-02-01T11:56:15;7.30;1.00
13123;DHT22;6627;50.920;12.050;2023-02-01T11:59:17;8.80;1.00
13123;DHT22;6627;50.920;12.050;2023-02-01T12:02:20;7.30;1.00
13123;DHT22;6627;50.920;12.050;2023-02-01T12:05:22;7.30;1.00
13123;DHT22;6627;50.920;12.050;2023-02-01T12:08:15;7.30;1.00
13123;DHT22;6627;50.920;12.050;2023-02-01T12:11:02;7.30;1.00
13123;DHT22;6627;50.920;12.050;2023-02-01T12:13:58;7.30;1.00
13123;DHT22;6627;50.920;12.050;2023-02-01T12:16:40;7.20;1.00
13123;DHT22;6627;50.920;12.050;2023-02-01T12:19:31;7.20;1.00
13123;DHT22;6627;50.920;12.050;2023-02-01T12:22:22;7.20;99.90
13123;DHT22;6627;50.920;12.050;2023-02-01T12:25:11;7.20;99.90
13123;DHT22;6627;50.920;12.050;2023-02-01T12:28:02;7.20;99.90
13123;DHT22;6627;50.920;12.050;2023-02-01T12:31:15;7.10;99.90
13123;DHT22;6627;50.920;12.050;2023-02-01T12:34:00;7.10;99.90
13123;DHT22;6627;50.920;12.050;2023-02-01T12:36:46;7.10;99.90
13123;DHT22;6627;50.920;12.050;2023-02-01T12:39:31;7.10;99.90
13123;DHT22;6627;50.920;12.050;2023-02-01T12:42:03;7.20;99.90
13123;DHT22;6627;50.920;12.050;2023-02-01T12:47:24;7.20;99.90
13123;DHT22;6627;50.920;12.050;2023-02-01T12:49:59;7.20;99.90
13123;DHT22;6627;50.920;12.050;2023-02-01T12:52:35;7.20;99.90
13123;DHT22;6627;50.920;12.050;2023-02-01T12:57:50;7.20;99.90
13123;DHT22;6627;50.920;12.050;2023-02-01T13:00:25;7.20;99.90
13123;DHT22;6627;50.920;12.050;2023-02-01T13:03:03;7.20;99.90
13123;DHT22;6627;50.920;12.050;2023-02-01T13:05:46;7.20;99.90
13123;DHT22;6627;50.920;12.050;2023-02-01T13:08:23;7.10;99.90
13123;DHT22;6627;50.920;12.050;2023-02-01T13:11:00;7.10;99.90
13123;DHT22;6627;50.920;12.050;2023-02-01T13:16:14;7.10;99.90
13123;DHT22;6627;50.920;12.050;2023-02-01T13:18:50;7.10;99.90
13123;DHT22;6627;50.920;12.050;2023-02-01T13:21:25;7.10;99.90
13123;DHT22;6627;50.920;12.050;2023-02-01T13:23:55;7.00;99.90
13123;DHT22;6627;50.920;12.050;2023-02-01T13:26:25;7.00;99.90
13123;DHT22;6627;50.920;12.050;2023-02-01T13:28:56;7.00;99.90
13123;DHT22;6627;50.920;12.050;2023-02-01T13:31:41;7.00;99.90
13123;DHT22;6627;50.920;12.050;2023-02-01T13:34:49;7.00;99.90
13123;DHT22;6627;50.920;12.050;2023-02-01T13:37:36;7.00;99.90
13123;DHT22;6627;50.920;12.050;2023-02-01T13:40:39;7.00;99.90
13123;DHT22;6627;50.920;12.050;2023-02-01T13:43:14;7.00;99.90
13123;DHT22;6627;50.920;12.050;2023-02-01T13:45:49;7.00;99.90
13123;DHT22;6627;50.920;12.050;2023-02-01T13:48:22;7.00;99.90
13123;DHT22;6627;50.920;12.050;2023-02-01T13:50:56;7.00;99.90
13123;DHT22;6627;50.920;12.050;2023-02-01T13:53:28;7.00;99.90
13123;DHT22;6627;50.920;12.050;2023-02-01T13:56:00;7.00;99.90
13123;DHT22;6627;50.920;12.050;2023-02-01T13:58:33;6.90;99.90
13123;DHT22;6627;50.920;12.050;2023-02-01T14:01:33;6.90;99.90
13123;DHT22;6627;50.920;12.050;2023-02-01T14:04:04;6.90;99.90
13123;DHT22;6627;50.920;12.050;2023-02-01T14:06:44;6.90;99.90
13123;DHT22;6627;50.920;12.050;2023-02-01T14:09:31;6.90;99.90
13123;DHT22;6627;50.920;12.050;2023-02-01T14:17:49;7.00;99.90
13123;DHT22;6627;50.920;12.050;2023-02-01T14:20:44;7.00;99.90
13123;DHT22;6627;50.920;12.050;2023-02-01T14:23:22;7.00;99.90
13123;DHT22;6627;50.920;12.050;2023-02-01T14:26:08;7.00;99.90
13123;DHT22;6627;50.920;12.050;2023-02-01T14:28:53;6.90;99.90
13123;DHT22;6627;50.920;12.050;2023-02-01T14:31:37;6.90;99.90
13123;DHT22;6627;50.920;12.050;2023-02-01T14:34:15;6.90;99.90
13123;DHT22;6627;50.920;12.050;2023-02-01T14:36:49;6.90;99.90
13123;DHT22;6627;50.920;12.050;2023-02-01T14:39:21;6.90;99.90
13123;DHT22;6627;50.920;12.050;2023-02-01T14:41:55;6.90;99.90
13123;DHT22;6627;50.920;12.050;2023-02-01T14:44:30;6.90;77.10
13123;DHT22;6627;50.920;12.050;2023-02-01T14:47:09;6.90;85.60
13123;DHT22;6627;50.920;12.050;2023-02-01T14:49:58;6.90;65.50
13123;DHT22;6627;50.920;12.050;2023-02-01T14:52:33;6.90;42.60
13123;DHT22;6627;50.920;12.050;2023-02-01T14:57:40;6.80;21.00
13123;DHT22;6627;50.920;12.050;2023-02-01T15:00:19;6.90;10.20
13123;DHT22;6627;50.920;12.050;2023-02-01T15:02:51;6.90;1.00
13123;DHT22;6627;50.920;12.050;2023-02-01T15:05:30;6.90;1.00
13123;DHT22;6627;50.920;12.050;2023-02-01T15:08:05;6.90;1.00
13123;DHT22;6627;50.920;12.050;2023-02-01T15:10:43;6.90;1.00
13123;DHT22;6627;50.920;12.050;2023-02-01T15:13:20;6.90;1.00
13123;DHT22;6627;50.920;12.050;2023-02-01T15:16:03;7.00;1.00
13123;DHT22;6627;50.920;12.050;2023-02-01T15:18:34;6.90;1.00
13123;DHT22;6627;50.920;12.050;2023-02-01T15:21:02;6.90;1.00
13123;DHT22;6627;50.920;12.050;2023-02-01T15:25:59;6.90;1.00
13123;DHT22;6627;50.920;12.050;2023-02-01T15:28:26;6.90;1.00
13123;DHT22;6627;50.920;12.050;2023-02-01T15:30:57;6.90;1.00
13123;DHT22;6627;50.920;12.050;2023-02-01T15:33:27;6.80;1.00
13123;DHT22;6627;50.920;12.050;2023-02-01T15:36:07;6.80;1.00
13123;DHT22;6627;50.920;12.050;2023-02-01T15:38:41;6.80;1.00
13123;DHT22;6627;50.920;12.050;2023-02-01T15:43:42;6.80;1.00
13123;DHT22;6627;50.920;12.050;2023-02-01T15:46:17;6.80;1.00
13123;DHT22;6627;50.920;12.050;2023-02-01T15:48:50;6.80;1.00
13123;DHT22;6627;50.920;12.050;2023-02-01T15:51:22;6.70;1.00
13123;DHT22;6627;50.920;12.050;2023-02-01T15:53:52;6.70;1.00
13123;DHT22;6627;50.920;12.050;2023-02-01T15:56:24;6.70;1.00
13123;DHT22;6627;50.920;12.050;2023-02-01T15:58:59;6.80;1.00
13123;DHT22;6627;50.920;12.050;2023-02-01T16:01:30;6.70;1.00
13123;DHT22;6627;50.920;12.050;2023-02-01T16:04:11;6.70;1.00
13123;DHT22;6627;50.920;12.050;2023-02-01T16:09:20;6.70;1.00
13123;DHT22;6627;50.920;12.050;2023-02-01T16:11:56;6.60;1.00
13123;DHT22;6627;50.920;12.050;2023-02-01T16:14:26;6.60;1.00
13123;DHT22;6627;50.920;12.050;2023-02-01T16:16:55;6.60;44.90
13123;DHT22;6627;50.920;12.050;2023-02-01T16:19:24;6.50;99.90
13123;DHT22;6627;50.920;12.050;2023-02-01T16:21:55;6.20;1.00
13123;DHT22;6627;50.920;12.050;2023-02-01T16:24:22;6.10;1.00
13123;DHT22;6627;50.920;12.050;2023-02-01T16:26:51;6.20;1.00
13123;DHT22;6627;50.920;12.050;2023-02-01T16:29:19;6.20;1.00
13123;DHT22;6627;50.920;12.050;2023-02-01T16:31:48;6.30;1.00
13123;DHT22;6627;50.920;12.050;2023-02-01T16:34:17;6.20;1.00
13123;DHT22;6627;50.920;12.050;2023-02-01T16:36:47;6.30;1.00
13123;DHT22;6627;50.920;12.050;2023-02-01T16:39:19;6.40;1.00
13123;DHT22;6627;50.920;12.050;2023-02-01T16:41:46;6.40;1.00
13123;DHT22;6627;50.920;12.050;2023-02-01T16:44:14;6.40;1.00
13123;DHT22;6627;50.920;12.050;2023-02-01T16:49:18;6.50;1.00
13123;DHT22;6627;50.920;12.050;2023-02-01T16:51:47;6.50;1.00
13123;DHT22;6627;50.920;12.050;2023-02-01T16:54:16;6.30;3.70
13123;DHT22;6627;50.920;12.050;2023-02-01T16:56:45;6.30;99.90
13123;DHT22;6627;50.920;12.050;2023-02-01T16:59:13;6.20;1.00
13123;DHT22;6627;50.920;12.050;2023-02-01T17:01:41;5.90;99.90
13123;DHT22;6627;50.920;12.050;2023-02-01T17:04:09;4.70;1.00
13123;DHT22;6627;50.920;12.050;2023-02-01T17:06:37;3.50;99.90
13123;DHT22;6627;50.920;12.050;2023-02-01T17:09:06;3.00;99.90
13123;DHT22;6627;50.920;12.050;2023-02-01T17:11:33;2.60;99.90
13123;DHT22;6627;50.920;12.050;2023-02-01T17:14:13;2.80;99.90
13123;DHT22;6627;50.920;12.050;2023-02-01T17:16:43;2.80;99.90